Time;durP1;ratioP1;P1;durP2;ratioP2;P2;SDS_P1;SDS_P2;PMS_P1;PMS_P2;Temp;Humidity;BMP_temperature;BMP_pressure;BME280_temperature;BME280_humidity;BME280_pressure;Samples;Min_cycle;Max_cycle;Signal;HPM_P1;HPM_P2
2022/03/23 00:01:58;;;;;;;58.35;29.23;;;6.20;93.90;;;;;;5092534;28;20036;-67
2022/03/23 00:04:24;;;;;;;65.57;30.15;;;6.10;93.90;;;;;;5080868;28;20071;-66
2022/03/23 00:06:50;;;;;;;64.60;29.77;;;6.10;94.40;;;;;;5096049;28;20135;-67
2022/03/23 00:09:15;;;;;;;58.40;30.20;;;6.10;94.50;;;;;;5099570;27;20031;-66
2022/03/23 00:11:42;;;;;;;60.47;30.40;;;6.10;94.50;;;;;;5111342;27;20365;-66
2022/03/23 00:14:09;;;;;;;63.47;28.17;;;6.10;94.60;;;;;;5103654;28;20077;-66
2022/03/23 00:16:36;;;;;;;55.15;28.45;;;6.10;94.60;;;;;;5101816;28;20067;-66
2022/03/23 00:19:07;;;;;;;62.17;30.02;;;6.10;94.60;;;;;;5100544;27;20139;-66
2022/03/23 00:21:32;;;;;;;60.72;29.33;;;6.10;94.60;;;;;;5105148;27;20062;-66
2022/03/23 00:23:58;;;;;;;51.83;27.75;;;6.00;94.50;;;;;;5106491;27;20035;-65
2022/03/23 00:26:24;;;;;;;61.42;28.85;;;5.90;94.30;;;;;;5092150;27;20027;-66
2022/03/23 00:28:50;;;;;;;58.80;28.50;;;5.80;94.60;;;;;;5105014;27;20051;-66
2022/03/23 00:31:16;;;;;;;62.10;30.23;;;5.80;95.40;;;;;;5111403;27;20035;-66
2022/03/23 00:33:41;;;;;;;64.03;31.38;;;5.80;95.00;;;;;;5087995;27;20536;-66
2022/03/23 00:36:09;;;;;;;66.63;31.67;;;5.80;96.00;;;;;;5109731;27;20066;-66
2022/03/23 00:38:35;;;;;;;66.43;30.77;;;5.80;95.80;;;;;;5094257;27;20152;-65
2022/03/23 00:41:00;;;;;;;72.93;32.30;;;5.80;95.60;;;;;;5108023;27;20477;-66
2022/03/23 00:43:26;;;;;;;64.15;31.58;;;5.80;95.80;;;;;;5106375;27;20086;-66
2022/03/23 00:45:51;;;;;;;62.80;30.95;;;5.70;95.80;;;;;;5100773;27;20110;-66
2022/03/23 00:48:17;;;;;;;63.65;29.45;;;5.70;95.90;;;;;;5100523;28;20149;-66
2022/03/23 00:50:43;;;;;;;58.40;29.35;;;5.70;95.80;;;;;;5089656;27;20035;-66
2022/03/23 00:53:08;;;;;;;65.05;30.80;;;5.70;95.90;;;;;;5103964;27;20030;-66
2022/03/23 00:55:34;;;;;;;58.83;28.88;;;5.60;95.80;;;;;;5105880;27;20340;-66
2022/03/23 00:57:59;;;;;;;66.10;29.75;;;5.60;95.80;;;;;;5090830;27;20129;-66
2022/03/23 01:00:25;;;;;;;63.63;31.17;;;5.50;95.80;;;;;;5106340;27;20039;-65
2022/03/23 01:02:50;;;;;;;62.63;29.77;;;5.50;96.00;;;;;;5098292;27;20104;-66
2022/03/23 01:05:16;;;;;;;67.50;31.08;;;5.50;96.00;;;;;;5104363;28;20127;-65
2022/03/23 01:07:43;;;;;;;68.68;31.42;;;5.40;96.00;;;;;;5082654;27;20255;-65
2022/03/23 01:10:14;;;;;;;64.18;29.92;;;5.40;96.60;;;;;;5106996;27;20042;-65
2022/03/23 01:12:44;;;;;;;66.53;31.55;;;5.40;96.90;;;;;;5081633;27;20110;-65
2022/03/23 01:15:11;;;;;;;67.45;32.88;;;5.40;96.50;;;;;;5101373;27;20046;-65
2022/03/23 01:17:37;;;;;;;77.00;33.65;;;5.40;96.40;;;;;;5099233;27;20547;-65
2022/03/23 01:20:08;;;;;;;62.83;31.10;;;5.40;96.50;;;;;;5112180;27;20035;-66
2022/03/23 01:22:34;;;;;;;62.53;30.85;;;5.40;97.10;;;;;;5099968;27;20468;-66
2022/03/23 01:25:00;;;;;;;61.85;29.25;;;5.30;96.50;;;;;;5086320;27;20042;-66
2022/03/23 01:27:26;;;;;;;63.35;29.70;;;5.20;96.60;;;;;;5106985;27;20395;-66
2022/03/23 01:29:52;;;;;;;57.97;27.60;;;5.20;96.60;;;;;;5106373;28;20063;-65
2022/03/23 01:32:18;;;;;;;62.53;30.33;;;5.20;96.70;;;;;;5089178;28;20538;-66
2022/03/23 01:34:44;;;;;;;67.10;31.15;;;5.20;96.90;;;;;;5108027;28;20038;-65
2022/03/23 01:37:09;;;;;;;63.30;29.92;;;5.20;97.10;;;;;;5102149;27;20736;-65
2022/03/23 01:39:35;;;;;;;63.35;30.25;;;5.10;96.70;;;;;;5090489;27;20027;-66
2022/03/23 01:42:00;;;;;;;73.00;30.55;;;5.20;97.00;;;;;;5098610;27;20031;-66
2022/03/23 01:44:27;;;;;;;65.68;32.05;;;5.10;96.80;;;;;;5102765;27;20044;-65
2022/03/23 01:47:07;;;;;;;62.85;30.45;;;5.10;97.00;;;;;;5102917;27;20144;-66
2022/03/23 01:49:34;;;;;;;71.80;33.67;;;5.00;98.00;;;;;;5106547;27;20077;-66
2022/03/23 01:52:00;;;;;;;69.45;31.60;;;5.10;97.40;;;;;;5102640;27;20053;-66
2022/03/23 01:54:26;;;;;;;64.15;30.60;;;5.00;97.30;;;;;;5081341;27;20062;-67
2022/03/23 01:56:54;;;;;;;70.47;31.52;;;5.00;97.50;;;;;;5098584;27;20041;-65
2022/03/23 01:59:20;;;;;;;67.07;32.08;;;5.00;97.60;;;;;;5100413;27;20050;-66
2022/03/23 02:01:47;;;;;;;66.35;29.75;;;5.10;97.70;;;;;;5106662;27;20047;-65
2022/03/23 02:04:13;;;;;;;63.63;31.25;;;5.00;97.40;;;;;;5101515;27;20125;-66
2022/03/23 02:06:38;;;;;;;72.40;32.30;;;5.00;97.60;;;;;;5106948;27;20154;-66
2022/03/23 02:09:04;;;;;;;68.38;31.73;;;5.00;97.60;;;;;;5102724;27;20070;-66
2022/03/23 02:11:32;;;;;;;72.22;34.10;;;4.90;97.50;;;;;;5109172;27;20374;-66
2022/03/23 02:13:58;;;;;;;70.47;32.83;;;4.90;98.50;;;;;;5108921;27;20049;-66
2022/03/23 02:16:24;;;;;;;66.68;31.55;;;4.90;97.90;;;;;;5096561;27;20073;-65
2022/03/23 02:18:50;;;;;;;67.35;32.97;;;4.90;98.00;;;;;;5124122;27;20074;-65
2022/03/23 02:21:15;;;;;;;69.78;33.53;;;4.80;98.00;;;;;;5106695;27;20031;-66
2022/03/23 02:23:41;;;;;;;69.68;33.38;;;4.80;98.10;;;;;;5106114;27;20483;-66
2022/03/23 02:26:08;;;;;;;77.50;35.10;;;4.80;98.40;;;;;;5100626;27;20031;-66
2022/03/23 02:28:35;;;;;;;74.25;35.22;;;4.80;98.60;;;;;;5103730;28;20123;-66
2022/03/23 02:31:01;;;;;;;83.03;35.92;;;4.80;98.60;;;;;;5102468;27;20126;-65
2022/03/23 02:33:28;;;;;;;78.43;34.47;;;4.70;98.70;;;;;;5107221;27;20420;-65
2022/03/23 02:35:54;;;;;;;76.00;35.30;;;4.70;99.20;;;;;;5105470;27;20051;-65
2022/03/23 02:38:20;;;;;;;71.25;33.42;;;4.70;98.90;;;;;;5099572;27;21540;-65
2022/03/23 02:40:46;;;;;;;70.00;33.97;;;4.70;99.30;;;;;;5104652;27;20469;-66
2022/03/23 02:43:12;;;;;;;73.15;33.22;;;4.60;98.90;;;;;;5100480;27;20042;-65
2022/03/23 02:45:38;;;;;;;68.82;33.30;;;4.60;99.20;;;;;;5091873;28;20039;-67
2022/03/23 02:48:06;;;;;;;67.70;32.63;;;4.60;99.40;;;;;;5107583;27;20043;-66
2022/03/23 02:50:31;;;;;;;78.55;33.80;;;4.50;99.10;;;;;;5101564;27;20189;-66
2022/03/23 03:01:54;;;;;;;74.53;34.90;;;4.50;99.80;;;;;;5099374;28;20051;-65
2022/03/23 03:04:20;;;;;;;77.38;36.08;;;4.50;99.90;;;;;;5101988;28;20039;-65
2022/03/23 03:06:47;;;;;;;76.30;34.55;;;4.50;99.90;;;;;;5099514;28;20443;-66
2022/03/23 03:09:13;;;;;;;82.53;35.88;;;4.50;99.90;;;;;;5101527;28;20374;-66
2022/03/23 03:11:39;;;;;;;73.05;35.60;;;4.40;99.90;;;;;;5109917;28;20039;-65
2022/03/23 03:14:04;;;;;;;70.97;34.70;;;4.40;99.90;;;;;;5106408;28;20051;-66
2022/03/23 03:16:30;;;;;;;78.28;34.47;;;4.40;99.90;;;;;;5104560;28;20117;-66
2022/03/23 03:18:56;;;;;;;78.15;35.13;;;4.40;99.90;;;;;;5113862;28;20103;-65
2022/03/23 03:21:22;;;;;;;78.53;36.38;;;4.40;99.90;;;;;;5109871;28;20059;-65
2022/03/23 03:23:48;;;;;;;80.35;36.83;;;4.40;99.90;;;;;;5096141;28;20119;-66
2022/03/23 03:26:15;;;;;;;81.15;35.28;;;4.40;99.90;;;;;;5106491;28;20091;-65
2022/03/23 03:28:42;;;;;;;78.00;36.10;;;4.30;99.90;;;;;;5086264;28;20117;-65
2022/03/23 03:31:10;;;;;;;71.22;32.65;;;4.20;99.90;;;;;;5116513;27;20328;-66
2022/03/23 03:33:36;;;;;;;72.55;34.20;;;4.20;99.90;;;;;;5098964;28;20031;-66
2022/03/23 03:36:03;;;;;;;77.53;34.95;;;4.20;99.90;;;;;;5104263;28;20051;-65
2022/03/23 03:38:30;;;;;;;77.72;36.10;;;4.20;99.90;;;;;;5093104;28;20523;-65
2022/03/23 03:40:57;;;;;;;85.85;37.15;;;4.20;99.90;;;;;;5081938;28;20101;-65
2022/03/23 03:43:24;;;;;;;78.85;36.83;;;4.10;99.90;;;;;;5100231;28;20031;-65
2022/03/23 03:45:50;;;;;;;86.95;37.97;;;4.10;99.90;;;;;;5076035;28;20039;-66
2022/03/23 03:48:17;;;;;;;78.47;35.53;;;4.10;99.90;;;;;;5097914;28;20043;-66
2022/03/23 03:50:43;;;;;;;86.32;37.70;;;4.10;99.90;;;;;;5100407;28;20054;-66
2022/03/23 03:53:08;;;;;;;78.07;35.55;;;4.10;99.90;;;;;;5093882;28;20127;-65
2022/03/23 03:55:35;;;;;;;86.70;37.63;;;4.00;99.90;;;;;;5101050;28;20059;-66
2022/03/23 03:58:01;;;;;;;88.63;38.38;;;4.00;99.90;;;;;;5102397;27;20166;-65
2022/03/23 04:00:26;;;;;;;82.10;37.22;;;3.90;99.90;;;;;;5109254;27;20166;-65
2022/03/23 04:02:52;;;;;;;70.97;33.10;;;3.90;99.90;;;;;;5102685;28;20039;-66
2022/03/23 04:05:18;;;;;;;70.38;34.45;;;3.90;99.90;;;;;;5106840;27;20068;-65
2022/03/23 04:07:43;;;;;;;72.50;34.00;;;3.90;99.90;;;;;;5106220;27;20724;-66
2022/03/23 04:10:09;;;;;;;82.70;37.28;;;3.90;99.90;;;;;;5109695;27;20080;-65
2022/03/23 04:12:35;;;;;;;75.43;36.47;;;3.90;99.90;;;;;;5111144;27;20086;-65
2022/03/23 04:15:01;;;;;;;81.97;36.95;;;3.90;99.90;;;;;;5103175;27;20040;-65
2022/03/23 04:17:27;;;;;;;84.55;39.08;;;3.90;99.90;;;;;;5106954;27;20051;-65
2022/03/23 04:19:53;;;;;;;89.20;39.28;;;3.90;99.90;;;;;;5123989;27;20576;-65
2022/03/23 04:22:18;;;;;;;86.53;37.90;;;3.80;99.90;;;;;;5102990;28;20386;-65
2022/03/23 04:24:44;;;;;;;95.65;39.67;;;3.80;99.90;;;;;;5098942;27;20035;-65
2022/03/23 04:27:09;;;;;;;89.18;39.20;;;3.90;99.90;;;;;;5110149;27;20589;-65
2022/03/23 04:29:35;;;;;;;88.13;39.22;;;3.90;99.90;;;;;;5112438;27;20117;-65
2022/03/23 04:32:00;;;;;;;85.07;38.28;;;3.90;99.90;;;;;;5111065;27;20046;-67
2022/03/23 04:34:26;;;;;;;83.50;35.20;;;3.80;99.90;;;;;;5111949;27;20070;-65
2022/03/23 04:36:51;;;;;;;79.90;34.95;;;3.70;99.90;;;;;;5103020;27;20051;-65
2022/03/23 04:39:17;;;;;;;85.57;37.78;;;3.70;99.90;;;;;;5106518;27;20501;-65
2022/03/23 04:41:43;;;;;;;80.07;36.75;;;3.70;99.90;;;;;;5097718;27;20036;-65
2022/03/23 04:44:08;;;;;;;79.13;35.92;;;3.70;99.90;;;;;;5111508;27;20242;-66
2022/03/23 04:46:34;;;;;;;85.40;37.08;;;3.70;99.90;;;;;;5103624;27;20039;-65
2022/03/23 04:48:59;;;;;;;80.15;35.88;;;3.70;99.90;;;;;;5083408;27;20051;-65
2022/03/23 04:51:25;;;;;;;84.88;35.20;;;3.60;99.90;;;;;;5110800;27;20039;-65
2022/03/23 04:53:50;;;;;;;83.60;36.83;;;3.60;99.90;;;;;;5103323;27;20447;-65
2022/03/23 04:56:16;;;;;;;79.35;35.90;;;3.60;99.90;;;;;;5094971;27;20044;-66
2022/03/23 04:58:42;;;;;;;76.28;36.83;;;3.60;99.90;;;;;;5098250;28;20514;-65
2022/03/23 05:01:08;;;;;;;81.00;36.15;;;3.50;99.90;;;;;;5087933;27;20031;-65
2022/03/23 05:03:34;;;;;;;81.32;36.92;;;3.50;99.90;;;;;;5107269;28;20054;-65
2022/03/23 05:06:00;;;;;;;75.63;35.13;;;3.40;99.90;;;;;;5083191;27;20031;-65
2022/03/23 05:08:26;;;;;;;80.47;36.13;;;3.40;99.90;;;;;;5103071;27;20445;-64
2022/03/23 05:10:52;;;;;;;87.07;41.45;;;3.40;99.90;;;;;;5099975;27;20041;-65
2022/03/23 05:13:17;;;;;;;85.88;36.95;;;3.40;99.90;;;;;;5107348;27;20046;-65
2022/03/23 05:15:43;;;;;;;91.07;37.50;;;3.40;99.90;;;;;;5101398;28;20195;-65
2022/03/23 05:18:09;;;;;;;80.63;35.75;;;3.40;99.90;;;;;;5104787;27;20047;-65
2022/03/23 05:20:34;;;;;;;84.65;36.67;;;3.40;99.90;;;;;;5097829;27;20066;-65
2022/03/23 05:23:00;;;;;;;82.47;36.83;;;3.40;99.90;;;;;;5084990;27;20034;-65
2022/03/23 05:25:26;;;;;;;82.10;35.42;;;3.40;99.90;;;;;;5101383;27;20110;-66
2022/03/23 05:27:52;;;;;;;83.43;35.65;;;3.40;99.90;;;;;;5100896;27;20066;-65
2022/03/23 05:30:18;;;;;;;79.97;35.65;;;3.30;99.90;;;;;;5108080;27;20047;-65
2022/03/23 05:32:44;;;;;;;81.85;35.67;;;3.30;99.90;;;;;;5109848;27;20486;-64
2022/03/23 05:35:11;;;;;;;83.40;36.00;;;3.20;99.90;;;;;;5099767;27;20043;-64
2022/03/23 05:37:37;;;;;;;89.93;38.60;;;3.20;99.90;;;;;;5090639;27;20099;-66
2022/03/23 05:40:04;;;;;;;86.53;36.70;;;3.30;99.90;;;;;;5107515;27;20035;-64
2022/03/23 05:42:29;;;;;;;88.82;36.97;;;3.20;99.90;;;;;;5093913;27;20039;-65
2022/03/23 05:44:55;;;;;;;79.43;36.38;;;3.20;99.90;;;;;;5108419;27;20486;-65
2022/03/23 05:47:21;;;;;;;81.85;37.10;;;3.20;99.90;;;;;;5106803;27;20128;-65
2022/03/23 05:49:47;;;;;;;84.72;38.08;;;3.20;99.90;;;;;;5108554;27;20526;-65
2022/03/23 05:52:12;;;;;;;85.20;38.35;;;3.20;99.90;;;;;;5074197;27;20491;-65
2022/03/23 05:54:39;;;;;;;91.28;37.88;;;3.20;99.90;;;;;;5097285;27;20122;-65
2022/03/23 05:57:05;;;;;;;86.28;39.28;;;3.20;99.90;;;;;;5107462;27;20043;-64
2022/03/23 05:59:31;;;;;;;80.93;38.45;;;3.20;99.90;;;;;;5077667;27;20027;-65
2022/03/23 06:01:58;;;;;;;85.57;38.45;;;3.30;99.90;;;;;;5118712;27;20032;-66
2022/03/23 06:04:23;;;;;;;88.78;38.78;;;3.30;99.90;;;;;;5098944;27;20510;-65
2022/03/23 06:06:49;;;;;;;87.57;39.97;;;3.30;99.90;;;;;;5096567;27;20153;-65
2022/03/23 06:09:15;;;;;;;84.25;37.35;;;3.40;99.90;;;;;;5103708;28;20046;-65
2022/03/23 06:11:40;;;;;;;89.80;41.40;;;3.40;99.90;;;;;;5101270;27;20044;-65
2022/03/23 06:14:06;;;;;;;97.10;42.67;;;3.50;99.90;;;;;;5098840;27;20434;-66
2022/03/23 06:16:32;;;;;;;97.13;43.28;;;3.60;99.90;;;;;;5077461;27;20062;-65
2022/03/23 06:18:59;;;;;;;99.22;42.15;;;3.60;99.90;;;;;;5124402;27;20555;-65
2022/03/23 06:21:25;;;;;;;97.07;43.15;;;3.70;99.90;;;;;;5103410;27;20111;-65
2022/03/23 06:23:51;;;;;;;97.18;42.42;;;3.80;99.90;;;;;;5074225;27;20061;-66
2022/03/23 06:26:16;;;;;;;98.93;45.00;;;4.00;99.90;;;;;;5089649;27;20431;-65
2022/03/23 06:28:43;;;;;;;104.53;45.53;;;4.10;99.90;;;;;;5082144;27;20035;-65
2022/03/23 06:31:08;;;;;;;97.75;45.60;;;4.20;99.90;;;;;;5105299;27;20539;-65
2022/03/23 06:33:34;;;;;;;102.03;45.90;;;4.40;99.90;;;;;;5109657;27;20118;-65
2022/03/23 06:35:59;;;;;;;92.80;44.08;;;4.60;99.90;;;;;;5105014;27;20473;-65
2022/03/23 06:38:25;;;;;;;99.88;44.30;;;4.70;99.90;;;;;;5082689;27;20470;-66
2022/03/23 06:40:51;;;;;;;86.97;42.65;;;5.00;99.90;;;;;;5108073;28;20082;-65
2022/03/23 06:43:16;;;;;;;85.53;43.53;;;5.20;99.90;;;;;;5106173;27;20054;-65
2022/03/23 06:45:43;;;;;;;83.55;41.80;;;5.30;99.90;;;;;;5089807;27;20043;-66
2022/03/23 06:48:08;;;;;;;90.90;43.80;;;5.50;99.90;;;;;;5102192;27;20171;-66
2022/03/23 06:50:35;;;;;;;85.25;43.50;;;5.70;99.90;;;;;;5093701;28;20043;-66
2022/03/23 06:53:01;;;;;;;80.50;42.85;;;6.00;99.90;;;;;;5080366;28;20058;-66
2022/03/23 06:55:27;;;;;;;85.45;43.78;;;6.20;99.90;;;;;;5104232;27;20047;-67
2022/03/23 06:57:53;;;;;;;78.65;43.20;;;6.40;99.90;;;;;;5092148;27;20328;-66
2022/03/23 07:00:19;;;;;;;83.05;43.92;;;6.70;99.90;;;;;;5086824;28;20046;-66
2022/03/23 07:02:47;;;;;;;77.75;41.85;;;7.00;99.90;;;;;;5109415;28;20039;-66
2022/03/23 07:05:15;;;;;;;72.38;41.03;;;7.30;99.90;;;;;;5106829;28;20031;-67
2022/03/23 07:10:25;;;;;;;73.07;41.88;;;7.90;99.90;;;;;;5106502;28;20497;-66
2022/03/23 07:12:51;;;;;;;72.85;40.45;;;8.20;99.90;;;;;;5101277;28;20112;-67
2022/03/23 07:15:17;;;;;;;61.08;36.28;;;8.50;99.90;;;;;;5107487;28;20054;-66
2022/03/23 07:17:42;;;;;;;61.80;36.78;;;8.90;99.90;;;;;;5104223;28;20067;-66
2022/03/23 07:20:09;;;;;;;65.35;37.25;;;9.30;99.90;;;;;;5102342;28;20574;-66
2022/03/23 07:22:35;;;;;;;58.90;34.75;;;9.60;98.90;;;;;;5119036;27;20053;-66
2022/03/23 07:25:01;;;;;;;59.22;34.97;;;10.00;97.10;;;;;;5084248;28;20039;-66
2022/03/23 07:27:26;;;;;;;55.75;33.40;;;10.10;95.30;;;;;;5118517;28;20043;-67
2022/03/23 07:29:52;;;;;;;53.03;34.13;;;10.40;94.10;;;;;;5100916;28;20380;-67
2022/03/23 07:32:18;;;;;;;50.75;32.00;;;10.60;91.90;;;;;;5105685;27;20137;-67
2022/03/23 07:34:44;;;;;;;53.20;34.10;;;10.90;91.10;;;;;;5100210;27;20061;-67
2022/03/23 07:37:09;;;;;;;53.38;33.50;;;11.10;90.20;;;;;;5104011;27;20043;-68
2022/03/23 07:39:35;;;;;;;57.38;34.45;;;11.40;88.10;;;;;;5110356;27;20023;-67
2022/03/23 07:42:02;;;;;;;52.88;33.75;;;11.60;86.40;;;;;;5105782;27;20386;-68
2022/03/23 07:44:29;;;;;;;57.45;33.20;;;11.90;84.60;;;;;;5092865;27;20083;-68
2022/03/23 07:46:55;;;;;;;58.58;33.53;;;12.20;83.50;;;;;;5107736;27;20047;-68
2022/03/23 07:49:21;;;;;;;53.67;32.58;;;12.50;82.10;;;;;;5102992;27;20038;-68
2022/03/23 07:51:46;;;;;;;52.25;32.58;;;12.70;81.30;;;;;;5104209;27;20118;-68
2022/03/23 07:54:12;;;;;;;51.15;33.25;;;12.80;80.30;;;;;;5090397;27;20785;-67
2022/03/23 07:56:37;;;;;;;54.75;32.35;;;13.00;80.00;;;;;;5111746;27;20117;-67
2022/03/23 07:59:03;;;;;;;52.28;31.98;;;13.10;78.40;;;;;;5105825;27;20121;-67
2022/03/23 08:01:29;;;;;;;50.28;32.03;;;13.00;78.10;;;;;;5102924;27;20038;-67
2022/03/23 08:03:55;;;;;;;56.22;31.88;;;12.90;77.80;;;;;;5090887;27;20089;-67
2022/03/23 08:06:20;;;;;;;48.40;33.03;;;12.70;76.80;;;;;;5110198;27;20459;-67
2022/03/23 08:08:46;;;;;;;51.50;31.77;;;12.70;76.60;;;;;;5084702;27;20046;-67
2022/03/23 08:11:11;;;;;;;49.38;32.80;;;12.50;75.80;;;;;;5109361;27;20408;-67
2022/03/23 08:13:37;;;;;;;48.42;31.50;;;12.40;76.00;;;;;;5120477;27;20081;-68
2022/03/23 08:16:05;;;;;;;47.95;29.73;;;12.30;75.70;;;;;;5111583;27;20034;-68
2022/03/23 08:18:32;;;;;;;45.25;29.98;;;12.30;75.40;;;;;;5108213;27;20112;-66
2022/03/23 08:20:58;;;;;;;52.00;32.08;;;12.30;74.30;;;;;;5105387;27;20050;-67
2022/03/23 08:23:25;;;;;;;48.58;30.40;;;12.30;74.40;;;;;;5106056;27;20117;-67
2022/03/23 08:25:51;;;;;;;54.33;31.45;;;12.40;73.60;;;;;;5104984;27;20103;-67
2022/03/23 08:28:17;;;;;;;44.55;27.85;;;12.40;73.00;;;;;;5094205;27;20031;-66
2022/03/23 08:30:44;;;;;;;41.95;28.88;;;12.40;72.50;;;;;;5108110;27;20147;-67
2022/03/23 08:33:10;;;;;;;47.20;28.55;;;12.40;71.50;;;;;;5111431;27;20042;-67
2022/03/23 08:35:36;;;;;;;44.95;27.30;;;12.50;70.70;;;;;;5109964;27;20039;-66
2022/03/23 08:38:02;;;;;;;43.70;25.83;;;12.60;70.00;;;;;;5106849;27;20091;-67
2022/03/23 08:40:29;;;;;;;41.58;25.80;;;12.80;68.20;;;;;;5095669;27;20071;-66
2022/03/23 08:42:55;;;;;;;39.95;24.95;;;12.90;67.50;;;;;;5094253;28;20035;-67
2022/03/23 08:45:21;;;;;;;35.17;22.80;;;13.00;66.90;;;;;;5108379;27;20043;-67
2022/03/23 08:47:49;;;;;;;38.15;23.60;;;13.20;64.80;;;;;;5107887;27;20043;-67
2022/03/23 08:50:16;;;;;;;39.22;24.25;;;13.30;63.90;;;;;;5105164;27;20043;-67
2022/03/23 08:52:42;;;;;;;38.28;23.25;;;13.50;62.50;;;;;;5089315;27;20439;-67
2022/03/23 08:55:10;;;;;;;37.08;21.83;;;13.60;62.70;;;;;;5104918;27;20129;-67
2022/03/23 08:57:39;;;;;;;34.22;21.95;;;13.80;60.20;;;;;;5112768;27;20035;-67
2022/03/23 09:00:06;;;;;;;38.15;22.65;;;14.10;59.40;;;;;;5110340;27;20039;-67
2022/03/23 09:02:32;;;;;;;35.05;21.98;;;14.20;59.30;;;;;;5109687;27;20477;-67
2022/03/23 09:04:58;;;;;;;33.65;20.75;;;14.50;59.10;;;;;;5111421;27;20027;-67
2022/03/23 09:07:23;;;;;;;32.67;21.27;;;14.60;57.60;;;;;;5103781;27;20103;-66
2022/03/23 09:09:49;;;;;;;37.28;22.08;;;15.10;56.80;;;;;;5100694;27;20336;-67
2022/03/23 09:12:15;;;;;;;33.08;20.98;;;15.50;54.80;;;;;;5096343;27;20114;-67
2022/03/23 09:14:41;;;;;;;32.47;20.73;;;16.00;53.20;;;;;;5108973;27;20031;-66
2022/03/23 09:17:06;;;;;;;32.10;21.17;;;16.20;51.50;;;;;;5092824;27;20054;-68
2022/03/23 09:19:33;;;;;;;36.30;21.27;;;16.00;51.40;;;;;;5109792;27;20042;-67
2022/03/23 09:21:59;;;;;;;29.38;20.23;;;15.90;51.00;;;;;;5110630;27;20099;-67
2022/03/23 09:24:26;;;;;;;31.05;19.77;;;15.80;51.50;;;;;;5095339;27;20176;-67
2022/03/23 09:26:53;;;;;;;29.33;18.45;;;15.60;50.80;;;;;;5113597;27;20122;-67
2022/03/23 09:29:18;;;;;;;30.85;18.35;;;15.60;50.10;;;;;;5108809;27;20031;-66
2022/03/23 09:31:44;;;;;;;24.95;16.13;;;15.50;48.50;;;;;;5104111;27;20031;-67
2022/03/23 09:34:09;;;;;;;27.38;17.65;;;15.50;46.60;;;;;;5096134;27;20114;-68
2022/03/23 09:39:19;;;;;;;24.05;16.15;;;15.50;46.60;;;;;;5122903;27;20178;-67
2022/03/23 09:41:45;;;;;;;22.63;16.85;;;15.50;44.60;;;;;;5109797;27;20731;-69
2022/03/23 09:44:11;;;;;;;23.48;16.00;;;15.60;45.00;;;;;;5107159;27;20439;-66
2022/03/23 09:46:37;;;;;;;27.00;17.13;;;15.70;44.50;;;;;;5091652;27;20070;-67
2022/03/23 09:49:06;;;;;;;25.80;18.00;;;15.70;44.00;;;;;;5107841;27;20043;-66
2022/03/23 09:51:33;;;;;;;28.48;18.58;;;15.70;44.80;;;;;;5110698;27;20051;-66
2022/03/23 09:54:00;;;;;;;29.85;18.25;;;15.70;43.90;;;;;;5084921;27;20031;-66
2022/03/23 09:56:26;;;;;;;27.48;18.23;;;15.80;42.90;;;;;;5120596;27;20042;-68
2022/03/23 09:58:51;;;;;;;30.23;18.40;;;15.80;42.90;;;;;;5090816;28;20036;-66
2022/03/23 10:01:32;;;;;;;26.80;16.65;;;15.90;43.50;;;;;;5102710;27;20114;-66
2022/03/23 10:04:16;;;;;;;26.35;16.65;;;15.90;40.30;;;;;;5106504;27;20050;-68
2022/03/23 10:07:14;;;;;;;23.25;16.63;;;15.90;40.80;;;;;;5087240;27;20031;-67
2022/03/23 10:10:17;;;;;;;21.65;16.13;;;16.10;41.80;;;;;;5106181;27;20027;-67
2022/03/23 10:13:24;;;;;;;22.15;15.80;;;16.20;38.40;;;;;;5087374;27;20046;-68
2022/03/23 10:16:27;;;;;;;23.00;15.95;;;16.30;37.40;;;;;;5105653;27;20058;-68
2022/03/23 10:18:55;;;;;;;23.48;15.32;;;16.30;38.30;;;;;;5087075;27;20100;-67
2022/03/23 10:21:26;;;;;;;22.58;15.35;;;16.40;39.90;;;;;;5106570;27;20055;-68
2022/03/23 10:23:57;;;;;;;21.55;15.90;;;16.50;39.20;;;;;;5107435;27;20039;-68
2022/03/23 10:26:23;;;;;;;23.20;15.23;;;16.50;39.10;;;;;;5083956;27;20426;-68
2022/03/23 10:28:49;;;;;;;25.65;16.58;;;16.60;39.50;;;;;;5106677;27;20157;-68
2022/03/23 10:31:19;;;;;;;21.25;15.23;;;16.70;39.70;;;;;;5109314;27;20039;-67
2022/03/23 10:34:00;;;;;;;23.20;16.38;;;16.70;38.00;;;;;;5107536;27;20421;-70
2022/03/23 10:36:29;;;;;;;24.02;15.50;;;16.80;37.60;;;;;;5108627;27;20063;-70
2022/03/23 10:39:04;;;;;;;23.30;15.35;;;16.70;38.10;;;;;;5100547;27;20088;-69
2022/03/23 10:41:30;;;;;;;23.08;16.75;;;16.80;37.30;;;;;;5105871;27;20038;-68
2022/03/23 10:43:57;;;;;;;20.92;15.55;;;16.80;37.70;;;;;;5106135;27;20043;-69
2022/03/23 10:46:23;;;;;;;22.08;15.30;;;16.80;38.50;;;;;;5106133;27;20117;-69
2022/03/23 10:49:07;;;;;;;27.60;15.10;;;17.00;38.40;;;;;;5106225;28;20673;-70
2022/03/23 10:51:36;;;;;;;18.73;12.98;;;17.00;37.90;;;;;;5104480;27;20039;-68
2022/03/23 10:54:23;;;;;;;19.10;13.23;;;17.00;36.30;;;;;;5091808;28;20086;-69
2022/03/23 10:56:49;;;;;;;21.27;13.07;;;17.10;33.40;;;;;;5101919;27;20491;-70
2022/03/23 10:59:27;;;;;;;20.02;13.50;;;17.00;35.60;;;;;;5104748;28;20040;-69
2022/03/23 11:02:01;;;;;;;20.80;13.88;;;17.00;34.70;;;;;;5097811;28;20046;-68
2022/03/23 11:04:30;;;;;;;20.42;13.88;;;17.00;34.20;;;;;;5106069;28;20413;-68
2022/03/23 11:06:58;;;;;;;18.60;12.93;;;17.10;35.50;;;;;;5106091;28;20127;-67
2022/03/23 11:18:07;;;;;;;24.13;13.95;;;17.20;35.40;;;;;;5095916;28;20393;-70
2022/03/23 11:20:48;;;;;;;19.30;13.27;;;17.40;34.80;;;;;;5105663;27;20039;-68
2022/03/23 11:23:31;;;;;;;25.50;14.68;;;17.60;36.00;;;;;;5081802;28;20138;-68
2022/03/23 11:26:03;;;;;;;25.40;13.00;;;17.40;35.20;;;;;;5109206;27;20023;-69
2022/03/23 11:28:32;;;;;;;19.98;12.38;;;17.50;35.80;;;;;;5101243;27;20383;-70
2022/03/23 11:30:58;;;;;;;23.70;13.13;;;17.60;35.90;;;;;;5103963;28;20058;-70
2022/03/23 11:33:25;;;;;;;20.77;12.23;;;17.40;34.90;;;;;;5127155;27;20455;-69
2022/03/23 11:35:53;;;;;;;24.58;12.20;;;17.50;34.80;;;;;;5112797;27;20505;-70
2022/03/23 11:38:21;;;;;;;21.23;11.85;;;17.50;34.80;;;;;;5105522;27;20027;-70
2022/03/23 11:40:48;;;;;;;17.08;10.95;;;17.60;34.70;;;;;;5116508;27;20043;-68
2022/03/23 11:43:16;;;;;;;21.48;11.93;;;17.50;34.10;;;;;;5115378;27;20371;-69
2022/03/23 11:45:43;;;;;;;19.98;10.25;;;17.50;34.10;;;;;;5116262;27;20520;-70
2022/03/23 11:48:13;;;;;;;22.05;11.07;;;17.70;34.60;;;;;;5108402;28;20041;-69
2022/03/23 11:51:05;;;;;;;21.33;11.52;;;17.50;33.50;;;;;;5113083;28;20039;-69
2022/03/23 11:53:50;;;;;;;19.15;11.55;;;17.60;34.00;;;;;;5108064;27;20083;-68
2022/03/23 11:56:24;;;;;;;22.55;12.38;;;17.60;34.00;;;;;;5099236;27;20120;-69
2022/03/23 11:58:50;;;;;;;21.60;12.18;;;17.70;34.10;;;;;;5128358;27;20054;-70
2022/03/23 12:01:16;;;;;;;19.23;12.05;;;17.70;34.30;;;;;;5112837;27;20050;-69
2022/03/23 12:03:41;;;;;;;18.35;11.82;;;17.60;34.50;;;;;;5114430;27;20612;-69
2022/03/23 12:06:21;;;;;;;20.30;12.25;;;17.70;34.50;;;;;;5112570;27;20043;-71
2022/03/23 12:08:58;;;;;;;20.30;10.57;;;17.90;33.90;;;;;;5110291;27;20045;-70
2022/03/23 12:11:43;;;;;;;23.48;11.55;;;17.90;34.70;;;;;;5104671;27;20051;-70
2022/03/23 12:14:28;;;;;;;19.63;11.40;;;18.00;34.90;;;;;;5102612;27;20039;-70
2022/03/23 12:16:57;;;;;;;16.67;10.23;;;18.10;33.20;;;;;;5100809;27;20039;-69
2022/03/23 12:19:28;;;;;;;22.80;11.43;;;18.30;35.20;;;;;;5107288;27;20055;-71
2022/03/23 12:21:58;;;;;;;19.92;10.07;;;18.30;33.80;;;;;;5114114;27;20039;-68
2022/03/23 12:24:47;;;;;;;19.20;10.32;;;18.30;33.00;;;;;;5109332;27;20031;-70
2022/03/23 12:27:36;;;;;;;17.10;8.40;;;18.20;33.60;;;;;;5101525;27;20039;-69
2022/03/23 12:30:18;;;;;;;17.50;7.50;;;18.20;31.30;;;;;;5108020;27;20050;-71
2022/03/23 12:32:44;;;;;;;23.25;8.50;;;18.20;33.70;;;;;;5115392;27;20513;-69
2022/03/23 12:35:10;;;;;;;19.05;8.10;;;18.10;33.00;;;;;;5132416;27;20067;-69
2022/03/23 12:37:39;;;;;;;16.20;8.10;;;18.00;34.00;;;;;;5096318;27;20036;-69
2022/03/23 12:40:10;;;;;;;22.08;8.00;;;18.10;32.30;;;;;;5089640;28;20160;-68
2022/03/23 12:42:45;;;;;;;23.00;8.10;;;18.10;32.00;;;;;;5095051;28;20039;-68
2022/03/23 12:45:17;;;;;;;20.25;7.43;;;18.30;32.90;;;;;;5082921;27;20100;-68
2022/03/23 12:47:55;;;;;;;17.02;7.88;;;18.30;31.50;;;;;;5107328;28;20493;-69
2022/03/23 12:59:15;;;;;;;15.07;8.23;;;21.40;29.80;;;;;;5112325;27;20043;-71
2022/03/23 13:01:41;;;;;;;16.48;9.23;;;23.80;28.20;;;;;;5092610;27;20032;-70
2022/03/23 13:04:06;;;;;;;17.08;8.48;;;23.40;27.40;;;;;;5108199;27;20042;-70
2022/03/23 13:06:35;;;;;;;15.60;7.50;;;23.20;27.70;;;;;;5113637;27;20088;-71
2022/03/23 13:09:02;;;;;;;17.13;7.32;;;23.00;28.10;;;;;;5108865;27;20045;-72